sensor_id;sensor_type;location;lat;lon;timestamp;pressure;altitude;pressure_sealevel;temperature;humidity
70930;BME280;58588;48.102;19.682;2022-08-21T00:00:08;98866.88;;;19.76;100.00
70930;BME280;58588;48.102;19.682;2022-08-21T00:03:11;98865.47;;;19.69;100.00
70930;BME280;58588;48.102;19.682;2022-08-21T00:06:15;98866.13;;;19.54;100.00
70930;BME280;58588;48.102;19.682;2022-08-21T00:09:19;98864.19;;;19.55;100.00
70930;BME280;58588;48.102;19.682;2022-08-21T00:12:21;98865.03;;;19.55;100.00
70930;BME280;58588;48.102;19.682;2022-08-21T00:15:25;98863.91;;;19.51;100.00
70930;BME280;58588;48.102;19.682;2022-08-21T00:18:49;98867.00;;;19.60;100.00
70930;BME280;58588;48.102;19.682;2022-08-21T00:21:53;98863.38;;;19.54;100.00
70930;BME280;58588;48.102;19.682;2022-08-21T00:24:55;98860.47;;;19.61;100.00
70930;BME280;58588;48.102;19.682;2022-08-21T00:27:57;98864.78;;;19.57;100.00
70930;BME280;58588;48.102;19.682;2022-08-21T00:31:00;98861.88;;;19.63;100.00
70930;BME280;58588;48.102;19.682;2022-08-21T00:34:04;98864.34;;;19.65;100.00
70930;BME280;58588;48.102;19.682;2022-08-21T00:37:08;98853.25;;;19.82;100.00
70930;BME280;58588;48.102;19.682;2022-08-21T00:40:16;98836.31;;;19.85;100.00
70930;BME280;58588;48.102;19.682;2022-08-21T00:43:21;98842.13;;;19.93;100.00
70930;BME280;58588;48.102;19.682;2022-08-21T00:46:23;98836.13;;;19.96;100.00
70930;BME280;58588;48.102;19.682;2022-08-21T00:49:25;98844.56;;;19.90;100.00
70930;BME280;58588;48.102;19.682;2022-08-21T00:52:32;98837.75;;;19.92;100.00
70930;BME280;58588;48.102;19.682;2022-08-21T00:55:35;98829.81;;;19.96;100.00
70930;BME280;58588;48.102;19.682;2022-08-21T00:58:39;98840.25;;;19.62;100.00
70930;BME280;58588;48.102;19.682;2022-08-21T01:01:43;98837.34;;;19.73;100.00
70930;BME280;58588;48.102;19.682;2022-08-21T01:04:45;98826.66;;;19.72;100.00
70930;BME280;58588;48.102;19.682;2022-08-21T01:07:49;98827.44;;;19.67;100.00
70930;BME280;58588;48.102;19.682;2022-08-21T01:10:52;98825.53;;;19.68;100.00
70930;BME280;58588;48.102;19.682;2022-08-21T01:13:54;98825.34;;;19.80;100.00
70930;BME280;58588;48.102;19.682;2022-08-21T01:16:58;98827.59;;;19.88;100.00
70930;BME280;58588;48.102;19.682;2022-08-21T01:20:05;98830.47;;;19.71;100.00
70930;BME280;58588;48.102;19.682;2022-08-21T01:23:09;98819.03;;;19.74;100.00
70930;BME280;58588;48.102;19.682;2022-08-21T01:26:12;98823.47;;;19.85;100.00
70930;BME280;58588;48.102;19.682;2022-08-21T01:29:37;98826.94;;;19.75;100.00
70930;BME280;58588;48.102;19.682;2022-08-21T01:32:40;98826.81;;;19.60;100.00
70930;BME280;58588;48.102;19.682;2022-08-21T01:35:42;98825.19;;;19.32;98.58
70930;BME280;58588;48.102;19.682;2022-08-21T01:38:45;98824.06;;;19.28;96.37
70930;BME280;58588;48.102;19.682;2022-08-21T01:41:48;98816.78;;;19.39;98.40
70930;BME280;58588;48.102;19.682;2022-08-21T01:44:50;98813.28;;;19.43;99.47
70930;BME280;58588;48.102;19.682;2022-08-21T01:47:52;98818.22;;;19.46;99.75
70930;BME280;58588;48.102;19.682;2022-08-21T01:50:54;98823.63;;;19.41;98.06
70930;BME280;58588;48.102;19.682;2022-08-21T01:53:57;98811.25;;;19.34;97.21
70930;BME280;58588;48.102;19.682;2022-08-21T01:57:00;98806.88;;;19.33;97.31
70930;BME280;58588;48.102;19.682;2022-08-21T02:00:04;98814.81;;;19.34;97.55
70930;BME280;58588;48.102;19.682;2022-08-21T02:03:06;98812.31;;;19.28;97.12
70930;BME280;58588;48.102;19.682;2022-08-21T02:06:13;98809.19;;;19.19;94.08
70930;BME280;58588;48.102;19.682;2022-08-21T02:09:17;98815.75;;;19.18;94.37
70930;BME280;58588;48.102;19.682;2022-08-21T02:12:19;98822.09;;;19.23;95.93
70930;BME280;58588;48.102;19.682;2022-08-21T02:15:22;98809.88;;;19.31;96.59
70930;BME280;58588;48.102;19.682;2022-08-21T02:18:24;98812.81;;;19.24;97.12
70930;BME280;58588;48.102;19.682;2022-08-21T02:21:26;98813.06;;;19.23;96.29
70930;BME280;58588;48.102;19.682;2022-08-21T02:24:29;98821.50;;;19.16;95.19
70930;BME280;58588;48.102;19.682;2022-08-21T02:27:38;98819.56;;;19.17;94.95
70930;BME280;58588;48.102;19.682;2022-08-21T02:30:42;98825.59;;;19.19;93.31
70930;BME280;58588;48.102;19.682;2022-08-21T02:33:45;98822.63;;;19.52;97.81
70930;BME280;58588;48.102;19.682;2022-08-21T02:36:47;98818.50;;;18.91;93.05
70930;BME280;58588;48.102;19.682;2022-08-21T02:39:51;98822.72;;;19.04;93.40
70930;BME280;58588;48.102;19.682;2022-08-21T02:42:53;98826.41;;;19.14;93.58
70930;BME280;58588;48.102;19.682;2022-08-21T02:45:56;98820.31;;;19.07;93.56
70930;BME280;58588;48.102;19.682;2022-08-21T02:48:58;98826.03;;;19.33;97.28
70930;BME280;58588;48.102;19.682;2022-08-21T02:52:00;98821.13;;;19.35;97.19
70930;BME280;58588;48.102;19.682;2022-08-21T02:55:04;98820.84;;;19.36;98.01
70930;BME280;58588;48.102;19.682;2022-08-21T02:58:07;98822.69;;;19.25;97.05
70930;BME280;58588;48.102;19.682;2022-08-21T03:01:09;98822.34;;;19.22;95.75
70930;BME280;58588;48.102;19.682;2022-08-21T03:04:11;98816.69;;;19.29;96.23
70930;BME280;58588;48.102;19.682;2022-08-21T03:07:13;98815.59;;;19.30;96.81
70930;BME280;58588;48.102;19.682;2022-08-21T03:10:17;98819.03;;;19.15;95.26
70930;BME280;58588;48.102;19.682;2022-08-21T03:13:20;98828.91;;;19.21;95.04
70930;BME280;58588;48.102;19.682;2022-08-21T03:16:22;98825.03;;;19.17;95.29
70930;BME280;58588;48.102;19.682;2022-08-21T03:19:24;98830.63;;;19.27;96.89
70930;BME280;58588;48.102;19.682;2022-08-21T03:22:26;98832.00;;;19.30;97.56
70930;BME280;58588;48.102;19.682;2022-08-21T03:25:30;98824.41;;;19.37;98.39
70930;BME280;58588;48.102;19.682;2022-08-21T03:28:33;98833.09;;;19.29;96.39
70930;BME280;58588;48.102;19.682;2022-08-21T03:31:35;98827.88;;;19.27;96.99
70930;BME280;58588;48.102;19.682;2022-08-21T03:34:38;98824.88;;;19.29;97.69
70930;BME280;58588;48.102;19.682;2022-08-21T03:37:40;98829.94;;;19.15;96.50
70930;BME280;58588;48.102;19.682;2022-08-21T03:40:43;98832.47;;;19.21;95.90
70930;BME280;58588;48.102;19.682;2022-08-21T03:43:45;98835.00;;;19.28;97.64
70930;BME280;58588;48.102;19.682;2022-08-21T03:46:47;98835.19;;;19.21;96.19
70930;BME280;58588;48.102;19.682;2022-08-21T03:49:50;98832.53;;;19.27;96.28
70930;BME280;58588;48.102;19.682;2022-08-21T03:52:52;98834.88;;;19.18;96.08
70930;BME280;58588;48.102;19.682;2022-08-21T03:55:55;98834.00;;;19.12;94.34
70930;BME280;58588;48.102;19.682;2022-08-21T03:58:57;98829.41;;;19.18;94.65
70930;BME280;58588;48.102;19.682;2022-08-21T04:02:01;98836.91;;;19.28;95.84
70930;BME280;58588;48.102;19.682;2022-08-21T04:05:05;98847.47;;;19.19;94.06
70930;BME280;58588;48.102;19.682;2022-08-21T04:08:07;98848.81;;;19.16;94.25
70930;BME280;58588;48.102;19.682;2022-08-21T04:11:12;98857.72;;;19.07;92.53
70930;BME280;58588;48.102;19.682;2022-08-21T04:14:16;98865.81;;;19.23;93.36
70930;BME280;58588;48.102;19.682;2022-08-21T04:17:18;98866.25;;;19.37;95.55
70930;BME280;58588;48.102;19.682;2022-08-21T04:20:21;98867.03;;;19.33;97.65
70930;BME280;58588;48.102;19.682;2022-08-21T04:23:23;98875.00;;;19.39;98.11
70930;BME280;58588;48.102;19.682;2022-08-21T04:26:27;98865.41;;;19.37;98.47
70930;BME280;58588;48.102;19.682;2022-08-21T04:29:31;98870.03;;;19.31;97.84
70930;BME280;58588;48.102;19.682;2022-08-21T04:32:33;98878.41;;;19.24;97.45
70930;BME280;58588;48.102;19.682;2022-08-21T04:35:35;98873.47;;;19.21;95.46
70930;BME280;58588;48.102;19.682;2022-08-21T04:38:37;98874.41;;;19.32;98.37
70930;BME280;58588;48.102;19.682;2022-08-21T04:41:41;98876.59;;;19.35;96.37
70930;BME280;58588;48.102;19.682;2022-08-21T04:44:42;98877.91;;;19.28;96.75
70930;BME280;58588;48.102;19.682;2022-08-21T04:47:44;98881.19;;;19.30;96.74
70930;BME280;58588;48.102;19.682;2022-08-21T04:50:49;98881.50;;;19.33;96.64
70930;BME280;58588;48.102;19.682;2022-08-21T04:53:55;98882.88;;;19.36;97.79
70930;BME280;58588;48.102;19.682;2022-08-21T04:57:04;98881.34;;;19.45;98.00
70930;BME280;58588;48.102;19.682;2022-08-21T05:00:09;98886.72;;;19.35;99.23
70930;BME280;58588;48.102;19.682;2022-08-21T05:03:14;98886.66;;;19.30;97.76
70930;BME280;58588;48.102;19.682;2022-08-21T05:06:18;98886.81;;;19.18;97.00
70930;BME280;58588;48.102;19.682;2022-08-21T05:09:22;98893.41;;;19.22;95.26
70930;BME280;58588;48.102;19.682;2022-08-21T05:12:26;98890.31;;;19.13;95.81
70930;BME280;58588;48.102;19.682;2022-08-21T05:15:28;98900.94;;;19.10;94.19
70930;BME280;58588;48.102;19.682;2022-08-21T05:18:31;98911.19;;;19.24;93.82
70930;BME280;58588;48.102;19.682;2022-08-21T05:21:33;98914.38;;;19.38;96.28
70930;BME280;58588;48.102;19.682;2022-08-21T05:24:35;98925.34;;;19.43;98.33
70930;BME280;58588;48.102;19.682;2022-08-21T05:27:40;98920.28;;;19.57;99.24
70930;BME280;58588;48.102;19.682;2022-08-21T05:30:41;98920.13;;;19.64;99.85
70930;BME280;58588;48.102;19.682;2022-08-21T05:33:43;98912.19;;;19.62;100.00
70930;BME280;58588;48.102;19.682;2022-08-21T05:36:45;98918.75;;;19.61;99.12
70930;BME280;58588;48.102;19.682;2022-08-21T05:39:47;98925.44;;;19.53;98.54
70930;BME280;58588;48.102;19.682;2022-08-21T05:42:52;98923.06;;;19.35;96.87
70930;BME280;58588;48.102;19.682;2022-08-21T05:45:54;98917.88;;;19.34;96.71
70930;BME280;58588;48.102;19.682;2022-08-21T05:48:56;98918.06;;;19.27;96.00
70930;BME280;58588;48.102;19.682;2022-08-21T05:51:58;98915.69;;;19.36;96.98
70930;BME280;58588;48.102;19.682;2022-08-21T05:55:00;98911.88;;;19.37;97.40
70930;BME280;58588;48.102;19.682;2022-08-21T05:58:03;98917.03;;;19.33;97.56
70930;BME280;58588;48.102;19.682;2022-08-21T06:01:06;98925.03;;;19.40;98.35
70930;BME280;58588;48.102;19.682;2022-08-21T06:04:09;98928.66;;;19.45;98.11
70930;BME280;58588;48.102;19.682;2022-08-21T06:07:11;98934.63;;;19.64;100.00
70930;BME280;58588;48.102;19.682;2022-08-21T06:10:13;98926.84;;;19.83;100.00
70930;BME280;58588;48.102;19.682;2022-08-21T06:13:18;98937.63;;;19.95;100.00
70930;BME280;58588;48.102;19.682;2022-08-21T06:16:21;98940.44;;;20.05;100.00
70930;BME280;58588;48.102;19.682;2022-08-21T06:19:23;98927.53;;;20.00;100.00
70930;BME280;58588;48.102;19.682;2022-08-21T06:22:25;98937.13;;;20.03;100.00
70930;BME280;58588;48.102;19.682;2022-08-21T06:25:27;98936.63;;;20.06;100.00
70930;BME280;58588;48.102;19.682;2022-08-21T06:28:32;98940.06;;;19.91;100.00
70930;BME280;58588;48.102;19.682;2022-08-21T06:31:34;98930.63;;;20.09;100.00
70930;BME280;58588;48.102;19.682;2022-08-21T06:34:37;98930.41;;;20.16;100.00
70930;BME280;58588;48.102;19.682;2022-08-21T06:37:39;98927.69;;;20.16;100.00
70930;BME280;58588;48.102;19.682;2022-08-21T06:40:41;98930.94;;;20.13;100.00
70930;BME280;58588;48.102;19.682;2022-08-21T06:43:45;98922.03;;;20.32;100.00
70930;BME280;58588;48.102;19.682;2022-08-21T06:46:47;98926.91;;;20.25;100.00
70930;BME280;58588;48.102;19.682;2022-08-21T06:49:49;98933.31;;;20.41;100.00
70930;BME280;58588;48.102;19.682;2022-08-21T06:52:58;98929.63;;;20.63;100.00
70930;BME280;58588;48.102;19.682;2022-08-21T06:56:00;98928.56;;;20.64;100.00
70930;BME280;58588;48.102;19.682;2022-08-21T06:59:04;98922.81;;;20.65;100.00
70930;BME280;58588;48.102;19.682;2022-08-21T07:02:06;98920.91;;;20.66;100.00
70930;BME280;58588;48.102;19.682;2022-08-21T07:05:08;98917.66;;;20.74;100.00
70930;BME280;58588;48.102;19.682;2022-08-21T07:08:10;98915.53;;;20.91;100.00
70930;BME280;58588;48.102;19.682;2022-08-21T07:11:17;98909.25;;;20.91;100.00
70930;BME280;58588;48.102;19.682;2022-08-21T07:14:22;98904.59;;;20.96;100.00
70930;BME280;58588;48.102;19.682;2022-08-21T07:17:24;98899.69;;;21.03;100.00
70930;BME280;58588;48.102;19.682;2022-08-21T07:20:27;98893.38;;;20.98;100.00
70930;BME280;58588;48.102;19.682;2022-08-21T07:23:33;98890.06;;;20.96;100.00
70930;BME280;58588;48.102;19.682;2022-08-21T07:26:36;98893.94;;;21.00;100.00
70930;BME280;58588;48.102;19.682;2022-08-21T07:29:39;98896.72;;;21.15;100.00
70930;BME280;58588;48.102;19.682;2022-08-21T07:32:41;98896.69;;;21.00;100.00
70930;BME280;58588;48.102;19.682;2022-08-21T07:35:44;98889.53;;;20.94;100.00
70930;BME280;58588;48.102;19.682;2022-08-21T07:38:46;98884.53;;;20.80;100.00
70930;BME280;58588;48.102;19.682;2022-08-21T07:41:48;98880.16;;;20.79;100.00
70930;BME280;58588;48.102;19.682;2022-08-21T07:44:51;98881.00;;;20.90;100.00
70930;BME280;58588;48.102;19.682;2022-08-21T07:47:53;98875.31;;;21.02;100.00
70930;BME280;58588;48.102;19.682;2022-08-21T07:50:55;98865.44;;;21.01;100.00
70930;BME280;58588;48.102;19.682;2022-08-21T07:53:58;98876.13;;;21.02;100.00
70930;BME280;58588;48.102;19.682;2022-08-21T07:57:00;98880.53;;;21.14;100.00
70930;BME280;58588;48.102;19.682;2022-08-21T08:00:05;98877.00;;;21.18;100.00
70930;BME280;58588;48.102;19.682;2022-08-21T08:03:08;98861.38;;;21.19;100.00
70930;BME280;58588;48.102;19.682;2022-08-21T08:06:11;98862.47;;;21.18;100.00
70930;BME280;58588;48.102;19.682;2022-08-21T08:09:14;98859.72;;;21.23;100.00
70930;BME280;58588;48.102;19.682;2022-08-21T08:12:17;98867.69;;;21.19;100.00
70930;BME280;58588;48.102;19.682;2022-08-21T08:15:23;98857.53;;;21.20;100.00
70930;BME280;58588;48.102;19.682;2022-08-21T08:18:25;98856.44;;;21.26;100.00
70930;BME280;58588;48.102;19.682;2022-08-21T08:21:27;98865.00;;;21.29;100.00
70930;BME280;58588;48.102;19.682;2022-08-21T08:24:29;98852.59;;;21.27;100.00
70930;BME280;58588;48.102;19.682;2022-08-21T08:27:31;98852.59;;;21.27;100.00
70930;BME280;58588;48.102;19.682;2022-08-21T08:30:35;98858.63;;;21.19;100.00
70930;BME280;58588;48.102;19.682;2022-08-21T08:33:37;98855.03;;;21.08;100.00
70930;BME280;58588;48.102;19.682;2022-08-21T08:36:39;98865.75;;;21.15;100.00
70930;BME280;58588;48.102;19.682;2022-08-21T08:39:41;98858.09;;;21.27;100.00
70930;BME280;58588;48.102;19.682;2022-08-21T08:42:42;98866.09;;;21.38;100.00
70930;BME280;58588;48.102;19.682;2022-08-21T08:45:50;98874.06;;;21.50;100.00
70930;BME280;58588;48.102;19.682;2022-08-21T08:48:55;98867.75;;;21.40;100.00
70930;BME280;58588;48.102;19.682;2022-08-21T08:52:04;98863.63;;;21.52;100.00
70930;BME280;58588;48.102;19.682;2022-08-21T08:55:09;98862.56;;;21.63;100.00
70930;BME280;58588;48.102;19.682;2022-08-21T08:58:16;98869.41;;;21.76;100.00
70930;BME280;58588;48.102;19.682;2022-08-21T09:01:21;98865.03;;;21.85;100.00
70930;BME280;58588;48.102;19.682;2022-08-21T09:04:26;98850.47;;;22.05;100.00
70930;BME280;58588;48.102;19.682;2022-08-21T09:07:37;98858.97;;;22.24;100.00
70930;BME280;58588;48.102;19.682;2022-08-21T09:10:50;98849.09;;;22.08;100.00
70930;BME280;58588;48.102;19.682;2022-08-21T09:14:01;98858.69;;;22.00;100.00
70930;BME280;58588;48.102;19.682;2022-08-21T09:17:19;98854.88;;;22.01;100.00
70930;BME280;58588;48.102;19.682;2022-08-21T09:20:33;98859.78;;;21.94;100.00
70930;BME280;58588;48.102;19.682;2022-08-21T09:23:46;98863.91;;;22.07;100.00
70930;BME280;58588;48.102;19.682;2022-08-21T09:26:57;98869.94;;;22.29;100.00
70930;BME280;58588;48.102;19.682;2022-08-21T09:30:04;98868.59;;;22.16;100.00
70930;BME280;58588;48.102;19.682;2022-08-21T09:33:09;98874.63;;;22.24;100.00
70930;BME280;58588;48.102;19.682;2022-08-21T09:36:23;98877.63;;;22.32;100.00
70930;BME280;58588;48.102;19.682;2022-08-21T09:39:27;98881.16;;;22.43;100.00
70930;BME280;58588;48.102;19.682;2022-08-21T09:42:31;98871.03;;;22.38;100.00
70930;BME280;58588;48.102;19.682;2022-08-21T09:45:34;98877.03;;;22.56;100.00
70930;BME280;58588;48.102;19.682;2022-08-21T09:48:46;98855.59;;;22.58;100.00
70930;BME280;58588;48.102;19.682;2022-08-21T09:51:50;98848.69;;;22.65;100.00
70930;BME280;58588;48.102;19.682;2022-08-21T09:54:54;98847.63;;;22.61;100.00
70930;BME280;58588;48.102;19.682;2022-08-21T09:57:57;98848.13;;;22.68;100.00
70930;BME280;58588;48.102;19.682;2022-08-21T10:01:00;98858.34;;;22.53;100.00
70930;BME280;58588;48.102;19.682;2022-08-21T10:04:06;98853.38;;;22.55;100.00
70930;BME280;58588;48.102;19.682;2022-08-21T10:07:10;98850.81;;;22.84;100.00
70930;BME280;58588;48.102;19.682;2022-08-21T10:10:17;98848.00;;;23.04;100.00
70930;BME280;58588;48.102;19.682;2022-08-21T10:13:24;98856.28;;;22.99;100.00
70930;BME280;58588;48.102;19.682;2022-08-21T10:16:33;98848.78;;;23.10;100.00
70930;BME280;58588;48.102;19.682;2022-08-21T10:19:47;98852.22;;;23.31;100.00
70930;BME280;58588;48.102;19.682;2022-08-21T10:23:02;98855.22;;;23.39;100.00
70930;BME280;58588;48.102;19.682;2022-08-21T10:26:17;98857.03;;;23.54;100.00
70930;BME280;58588;48.102;19.682;2022-08-21T10:29:34;98854.63;;;23.42;100.00
70930;BME280;58588;48.102;19.682;2022-08-21T10:32:53;98852.69;;;23.43;100.00
70930;BME280;58588;48.102;19.682;2022-08-21T10:36:06;98856.19;;;23.54;100.00
70930;BME280;58588;48.102;19.682;2022-08-21T10:39:16;98856.34;;;23.72;100.00
70930;BME280;58588;48.102;19.682;2022-08-21T10:42:31;98862.50;;;23.59;100.00
70930;BME280;58588;48.102;19.682;2022-08-21T10:45:47;98861.09;;;23.67;100.00
70930;BME280;58588;48.102;19.682;2022-08-21T10:48:56;98859.06;;;23.77;100.00
70930;BME280;58588;48.102;19.682;2022-08-21T10:52:20;98853.28;;;23.79;100.00
70930;BME280;58588;48.102;19.682;2022-08-21T10:55:31;98856.44;;;23.62;100.00
70930;BME280;58588;48.102;19.682;2022-08-21T10:58:38;98858.75;;;23.84;100.00
70930;BME280;58588;48.102;19.682;2022-08-21T11:01:46;98860.47;;;23.75;100.00
70930;BME280;58588;48.102;19.682;2022-08-21T11:04:57;98866.00;;;24.04;100.00
70930;BME280;58588;48.102;19.682;2022-08-21T11:08:08;98859.78;;;23.93;100.00
70930;BME280;58588;48.102;19.682;2022-08-21T11:11:15;98851.19;;;24.00;100.00
70930;BME280;58588;48.102;19.682;2022-08-21T11:14:23;98856.31;;;24.12;100.00
70930;BME280;58588;48.102;19.682;2022-08-21T11:17:32;98858.22;;;24.11;100.00
70930;BME280;58588;48.102;19.682;2022-08-21T11:20:41;98857.75;;;24.28;100.00
70930;BME280;58588;48.102;19.682;2022-08-21T11:23:49;98862.25;;;24.24;100.00
70930;BME280;58588;48.102;19.682;2022-08-21T11:26:57;98858.50;;;24.10;98.01
70930;BME280;58588;48.102;19.682;2022-08-21T11:30:03;98856.44;;;24.25;94.93
70930;BME280;58588;48.102;19.682;2022-08-21T11:33:16;98859.88;;;24.41;98.40
70930;BME280;58588;48.102;19.682;2022-08-21T11:36:26;98852.31;;;24.52;100.00
70930;BME280;58588;48.102;19.682;2022-08-21T11:39:43;98849.06;;;24.45;95.39
70930;BME280;58588;48.102;19.682;2022-08-21T11:42:53;98848.34;;;24.82;94.61
70930;BME280;58588;48.102;19.682;2022-08-21T11:46:03;98843.66;;;24.82;95.12
70930;BME280;58588;48.102;19.682;2022-08-21T11:49:26;98849.41;;;24.86;96.78
70930;BME280;58588;48.102;19.682;2022-08-21T11:52:35;98849.72;;;24.37;95.35
70930;BME280;58588;48.102;19.682;2022-08-21T11:55:44;98841.00;;;24.24;93.64
70930;BME280;58588;48.102;19.682;2022-08-21T11:58:51;98849.91;;;24.16;97.24
70930;BME280;58588;48.102;19.682;2022-08-21T12:01:54;98834.34;;;24.30;96.78
70930;BME280;58588;48.102;19.682;2022-08-21T12:05:00;98846.56;;;24.48;100.00
70930;BME280;58588;48.102;19.682;2022-08-21T12:08:06;98835.00;;;24.46;98.63
70930;BME280;58588;48.102;19.682;2022-08-21T12:11:22;98828.72;;;24.65;98.38
70930;BME280;58588;48.102;19.682;2022-08-21T12:14:36;98824.50;;;24.72;97.99
70930;BME280;58588;48.102;19.682;2022-08-21T12:17:40;98822.78;;;24.76;95.50
70930;BME280;58588;48.102;19.682;2022-08-21T12:20:43;98815.00;;;24.83;90.77
70930;BME280;58588;48.102;19.682;2022-08-21T12:23:49;98818.13;;;24.96;93.98
70930;BME280;58588;48.102;19.682;2022-08-21T12:27:18;98816.38;;;25.05;93.04
70930;BME280;58588;48.102;19.682;2022-08-21T12:30:33;98805.00;;;24.88;88.30
70930;BME280;58588;48.102;19.682;2022-08-21T12:33:38;98800.91;;;25.04;89.14
70930;BME280;58588;48.102;19.682;2022-08-21T12:36:45;98802.16;;;24.93;90.86
70930;BME280;58588;48.102;19.682;2022-08-21T12:39:52;98799.44;;;25.12;90.08
70930;BME280;58588;48.102;19.682;2022-08-21T12:42:59;98801.81;;;25.18;88.97
70930;BME280;58588;48.102;19.682;2022-08-21T12:46:02;98784.25;;;25.14;89.40
70930;BME280;58588;48.102;19.682;2022-08-21T12:49:09;98789.00;;;25.60;87.91
70930;BME280;58588;48.102;19.682;2022-08-21T12:52:20;98776.38;;;25.92;86.26
70930;BME280;58588;48.102;19.682;2022-08-21T12:55:27;98773.00;;;26.36;85.49
70930;BME280;58588;48.102;19.682;2022-08-21T12:58:31;98767.47;;;26.77;84.35
70930;BME280;58588;48.102;19.682;2022-08-21T13:01:35;98760.19;;;26.67;77.53
70930;BME280;58588;48.102;19.682;2022-08-21T13:04:40;98743.56;;;26.45;73.81
70930;BME280;58588;48.102;19.682;2022-08-21T13:07:45;98749.25;;;26.35;79.22
70930;BME280;58588;48.102;19.682;2022-08-21T13:10:49;98741.78;;;26.35;80.08
70930;BME280;58588;48.102;19.682;2022-08-21T13:14:00;98732.38;;;26.64;78.09
70930;BME280;58588;48.102;19.682;2022-08-21T13:17:04;98719.25;;;26.70;74.31
70930;BME280;58588;48.102;19.682;2022-08-21T13:20:09;98714.38;;;26.53;76.20
70930;BME280;58588;48.102;19.682;2022-08-21T13:23:21;98722.56;;;26.58;76.28
70930;BME280;58588;48.102;19.682;2022-08-21T13:26:24;98717.13;;;26.89;75.13
70930;BME280;58588;48.102;19.682;2022-08-21T13:29:30;98717.31;;;26.92;74.42
70930;BME280;58588;48.102;19.682;2022-08-21T13:32:35;98716.69;;;27.09;75.05
70930;BME280;58588;48.102;19.682;2022-08-21T13:35:48;98713.78;;;27.14;73.99
70930;BME280;58588;48.102;19.682;2022-08-21T13:38:51;98708.56;;;26.77;75.92
70930;BME280;58588;48.102;19.682;2022-08-21T13:41:57;98710.13;;;27.72;74.28
70930;BME280;58588;48.102;19.682;2022-08-21T13:45:01;98710.22;;;27.67;71.65
70930;BME280;58588;48.102;19.682;2022-08-21T13:48:07;98721.56;;;27.80;69.54
70930;BME280;58588;48.102;19.682;2022-08-21T13:51:09;98718.81;;;27.12;71.45
70930;BME280;58588;48.102;19.682;2022-08-21T13:54:21;98716.75;;;27.18;71.61
70930;BME280;58588;48.102;19.682;2022-08-21T13:57:29;98721.53;;;27.26;71.84
70930;BME280;58588;48.102;19.682;2022-08-21T14:00:34;98720.03;;;27.42;71.35
70930;BME280;58588;48.102;19.682;2022-08-21T14:03:42;98721.91;;;27.33;69.65
70930;BME280;58588;48.102;19.682;2022-08-21T14:06:44;98718.69;;;27.40;70.30
70930;BME280;58588;48.102;19.682;2022-08-21T14:09:47;98720.84;;;27.20;71.56
70930;BME280;58588;48.102;19.682;2022-08-21T14:12:52;98723.97;;;27.05;71.02
70930;BME280;58588;48.102;19.682;2022-08-21T14:15:59;98719.94;;;26.75;72.09
70930;BME280;58588;48.102;19.682;2022-08-21T14:19:15;98717.88;;;26.81;73.86
70930;BME280;58588;48.102;19.682;2022-08-21T14:22:38;98724.09;;;26.09;73.72
70930;BME280;58588;48.102;19.682;2022-08-21T14:25:42;98716.59;;;25.96;75.68
70930;BME280;58588;48.102;19.682;2022-08-21T14:28:45;98725.72;;;25.96;77.30
70930;BME280;58588;48.102;19.682;2022-08-21T14:31:51;98720.44;;;25.34;80.24
70930;BME280;58588;48.102;19.682;2022-08-21T14:34:54;98732.84;;;24.99;81.50
70930;BME280;58588;48.102;19.682;2022-08-21T14:37:56;98726.22;;;24.81;84.34
70930;BME280;58588;48.102;19.682;2022-08-21T14:41:00;98740.16;;;24.71;84.17
70930;BME280;58588;48.102;19.682;2022-08-21T14:44:05;98745.97;;;24.70;86.72
70930;BME280;58588;48.102;19.682;2022-08-21T14:47:11;98751.34;;;24.80;85.67
70930;BME280;58588;48.102;19.682;2022-08-21T14:50:13;98754.84;;;24.86;84.42
70930;BME280;58588;48.102;19.682;2022-08-21T14:53:15;98753.03;;;24.95;83.57
70930;BME280;58588;48.102;19.682;2022-08-21T14:56:17;98742.69;;;24.87;84.69
70930;BME280;58588;48.102;19.682;2022-08-21T14:59:20;98742.44;;;24.64;83.92
70930;BME280;58588;48.102;19.682;2022-08-21T15:02:23;98736.88;;;24.88;82.66
70930;BME280;58588;48.102;19.682;2022-08-21T15:05:25;98749.78;;;24.74;83.77
70930;BME280;58588;48.102;19.682;2022-08-21T15:08:27;98740.44;;;24.70;82.02
70930;BME280;58588;48.102;19.682;2022-08-21T15:11:29;98740.06;;;24.58;85.39
70930;BME280;58588;48.102;19.682;2022-08-21T15:14:34;98737.38;;;24.52;85.75
70930;BME280;58588;48.102;19.682;2022-08-21T15:17:39;98731.09;;;24.47;85.65
70930;BME280;58588;48.102;19.682;2022-08-21T15:20:41;98738.13;;;24.58;87.99
70930;BME280;58588;48.102;19.682;2022-08-21T15:23:43;98733.44;;;24.59;92.96
70930;BME280;58588;48.102;19.682;2022-08-21T15:26:45;98730.66;;;24.40;87.51
70930;BME280;58588;48.102;19.682;2022-08-21T15:29:47;98721.56;;;24.39;88.08
70930;BME280;58588;48.102;19.682;2022-08-21T15:32:51;98722.78;;;24.28;89.09
70930;BME280;58588;48.102;19.682;2022-08-21T15:35:53;98728.72;;;24.40;90.39
70930;BME280;58588;48.102;19.682;2022-08-21T15:38:55;98722.16;;;24.36;89.52
70930;BME280;58588;48.102;19.682;2022-08-21T15:41:57;98719.56;;;24.45;89.98
70930;BME280;58588;48.102;19.682;2022-08-21T15:44:59;98715.69;;;24.65;90.55
70930;BME280;58588;48.102;19.682;2022-08-21T15:48:04;98708.03;;;24.43;87.37
70930;BME280;58588;48.102;19.682;2022-08-21T15:51:06;98713.53;;;24.43;88.34
70930;BME280;58588;48.102;19.682;2022-08-21T15:54:08;98705.72;;;24.50;88.32
70930;BME280;58588;48.102;19.682;2022-08-21T15:57:13;98716.38;;;24.56;91.74
70930;BME280;58588;48.102;19.682;2022-08-21T16:00:18;98711.75;;;24.52;90.72